Time;durP1;ratioP1;P1;durP2;ratioP2;P2;SDS_P1;SDS_P2;PMS_P1;PMS_P2;Temp;Humidity;BMP_temperature;BMP_pressure;BME280_temperature;BME280_humidity;BME280_pressure;Samples;Min_cycle;Max_cycle;Signal;HPM_P1;HPM_P2
2022/07/11 09:37:57;;;;;;;1.05;0.77;;;19.30;99.90;;;-144.05;63.10;125687.94;6099794;23;20022;-90
2022/07/11 09:40:27;;;;;;;1.30;0.95;;;19.40;99.90;;;-144.05;61.85;125687.94;6098835;23;20018;-88
2022/07/11 09:42:56;;;;;;;2.45;1.08;;;19.50;99.90;;;-144.05;61.57;125687.94;6074534;23;20014;-88
2022/07/11 09:45:27;;;;;;;2.72;1.48;;;19.40;99.90;;;-144.05;60.54;125687.94;6074007;23;20015;-88
2022/07/11 09:47:57;;;;;;;1.35;1.25;;;19.50;99.90;;;-144.05;60.83;125687.94;6073740;23;20011;-91
2022/07/11 09:50:30;;;;;;;2.00;1.13;;;19.50;99.90;;;-144.05;60.58;125687.94;6074501;23;20066;-91
2022/07/11 09:53:14;;;;;;;2.35;1.15;;;19.50;99.90;;;-144.05;60.94;125687.94;6100610;23;20026;-89
2022/07/11 09:55:46;;;;;;;2.25;1.00;;;19.40;99.90;;;-144.05;61.68;125687.94;6074519;23;20045;-87
2022/07/11 09:58:15;;;;;;;1.08;0.98;;;19.30;99.90;;;-144.05;62.57;125687.94;6079233;23;20093;-87
2022/07/11 10:00:44;;;;;;;2.65;1.10;;;19.20;99.90;;;-144.05;62.43;125687.94;6086104;23;20041;-89
2022/07/11 10:03:13;;;;;;;1.00;0.90;;;19.10;99.90;;;-144.05;62.74;125687.94;6099113;23;20006;-89
2022/07/11 10:05:39;;;;;;;0.93;0.82;;;18.90;99.90;;;-144.05;63.41;125687.94;6100033;23;20010;-88
2022/07/11 10:08:06;;;;;;;2.92;1.25;;;18.80;99.90;;;-144.05;63.65;125687.94;6074362;23;20007;-90
2022/07/11 10:10:33;;;;;;;0.70;0.70;;;18.70;99.90;;;-144.05;64.31;125687.94;6075213;23;20038;-88
2022/07/11 10:13:00;;;;;;;2.00;0.70;;;18.70;99.90;;;-144.05;64.22;125687.94;6075032;23;20013;-87
2022/07/11 10:15:34;;;;;;;1.67;0.80;;;18.70;99.90;;;-144.05;64.23;125687.94;6074906;23;20353;-89
2022/07/11 10:18:32;;;;;;;1.58;0.93;;;18.60;99.90;;;-144.05;64.36;125687.94;6074647;23;20010;-89
2022/07/11 10:21:22;;;;;;;2.72;1.35;;;18.70;99.90;;;-144.05;64.16;125687.94;6075777;23;20010;-89
2022/07/11 10:24:14;;;;;;;4.05;1.70;;;18.60;99.90;;;-144.05;64.08;125687.94;6098701;23;20010;-89
2022/07/11 10:27:12;;;;;;;3.45;1.60;;;18.60;99.90;;;-144.05;64.01;125687.94;6098304;23;20062;-92
2022/07/11 10:29:54;;;;;;;3.92;1.50;;;18.60;99.90;;;-144.05;63.52;125687.94;6097377;23;20065;-90
2022/07/11 10:32:20;;;;;;;2.17;1.50;;;18.70;99.90;;;-144.05;63.62;125687.94;6097046;23;20065;-90
2022/07/11 10:35:09;;;;;;;1.98;1.75;;;18.70;99.90;;;-144.05;63.69;125687.94;6073723;23;20014;-90
2022/07/11 10:37:52;;;;;;;1.80;1.55;;;18.70;99.90;;;-144.05;63.36;125687.94;6073810;23;20495;-90
2022/07/11 10:40:49;;;;;;;3.67;1.83;;;18.80;99.90;;;-144.05;62.84;125687.94;6097509;23;20468;-91
2022/07/11 10:43:22;;;;;;;2.22;1.83;;;18.80;99.90;;;-144.05;63.08;125687.94;6073471;23;20021;-89
2022/07/11 10:46:12;;;;;;;2.80;2.03;;;18.80;99.90;;;-144.05;62.89;125687.94;6073470;23;20038;-91
2022/07/11 10:49:14;;;;;;;3.50;2.13;;;18.70;99.90;;;-144.05;63.27;125687.94;6075584;23;20010;-90
2022/07/11 10:52:08;;;;;;;2.30;1.88;;;18.70;99.90;;;-144.05;63.67;125687.94;6099248;23;20010;-90
2022/07/11 10:55:05;;;;;;;1.92;1.65;;;18.70;99.90;;;-144.05;63.56;125687.94;6075363;23;20020;-89
2022/07/11 10:57:39;;;;;;;1.40;1.30;;;18.70;99.90;;;-144.05;63.76;125687.94;6098882;23;20006;-89
2022/07/11 11:00:14;;;;;;;3.35;1.50;;;18.70;99.90;;;-144.05;63.79;125687.94;6098935;23;20002;-90
2022/07/11 11:03:10;;;;;;;1.80;1.58;;;18.80;99.90;;;-144.05;63.53;125687.94;6074789;23;20042;-90
2022/07/11 11:05:49;;;;;;;2.00;1.80;;;18.80;99.90;;;-144.05;63.46;125687.94;6099973;23;20010;-91
2022/07/11 11:08:37;;;;;;;2.15;1.63;;;18.80;99.90;;;-144.05;63.88;125687.94;6074303;23;20003;-89
2022/07/11 11:11:23;;;;;;;3.28;1.67;;;18.70;99.90;;;-144.05;64.22;125687.94;6097999;23;20037;-92
2022/07/11 11:14:15;;;;;;;;;;;18.70;99.90;;;-144.05;64.11;125687.94;6099474;23;20045;-89
2022/07/11 11:16:41;;;;;;;2.03;1.10;;;18.60;99.90;;;-144.05;64.16;125687.94;6058845;23;19905;-90
2022/07/11 11:19:45;;;;;;;0.90;0.70;;;18.60;99.90;;;-144.05;64.74;125687.94;6099447;23;20038;-91
2022/07/11 11:22:19;;;;;;;1.20;0.70;;;18.50;99.90;;;-144.05;64.94;125687.94;6098215;23;20049;-90
2022/07/11 11:24:49;;;;;;;0.90;0.70;;;18.50;99.90;;;-144.05;64.97;125687.94;6099358;23;20459;-89
2022/07/11 11:27:27;;;;;;;0.95;0.75;;;18.50;99.90;;;-144.05;65.30;125687.94;6075395;23;20441;-89
2022/07/11 11:29:56;;;;;;;1.75;0.63;;;18.50;99.90;;;-144.05;64.61;125687.94;6079432;23;20050;-92
2022/07/11 11:32:30;;;;;;;1.17;0.70;;;18.50;99.90;;;-144.05;64.13;125687.94;6100042;23;20006;-91
2022/07/11 11:34:58;;;;;;;5.13;0.80;;;18.50;99.90;;;-144.05;63.53;125687.94;6123957;23;20089;-89
2022/07/11 11:37:25;;;;;;;2.13;0.80;;;18.60;99.90;;;-144.05;63.66;125687.94;6097813;23;20018;-89
2022/07/11 11:39:59;;;;;;;0.85;0.60;;;18.70;99.90;;;-144.05;63.18;125687.94;6122430;23;20017;-89
2022/07/11 11:42:30;;;;;;;1.90;1.30;;;18.80;99.90;;;-144.05;62.03;125687.94;6122612;23;20029;-90
2022/07/11 11:45:01;;;;;;;2.65;1.23;;;18.90;99.90;;;-144.05;61.36;125687.94;6122895;23;20030;-89
2022/07/11 11:47:31;;;;;;;2.05;0.80;;;19.20;99.90;;;-144.05;60.39;125687.94;6123102;23;20057;-90
2022/07/11 11:49:57;;;;;;;1.73;0.90;;;19.70;99.90;;;-144.05;57.95;125687.94;6098247;23;20033;-89
2022/07/11 11:52:24;;;;;;;1.02;0.80;;;20.20;99.90;;;-144.05;56.98;125687.94;6121725;23;20053;-88
2022/07/11 11:54:58;;;;;;;1.73;0.90;;;20.70;99.90;;;-144.05;54.78;125687.94;6122305;23;20297;-89
2022/07/11 11:57:28;;;;;;;0.50;0.50;;;21.30;99.90;;;-144.05;53.13;125687.94;6097624;23;20033;-90
2022/07/11 11:59:56;;;;;;;1.20;0.90;;;21.80;99.90;;;-144.05;52.08;125687.94;6122253;23;20010;-90
2022/07/11 12:02:31;;;;;;;1.35;0.70;;;22.10;99.90;;;-144.05;50.94;125687.94;6125099;23;20066;-88
2022/07/11 12:04:58;;;;;;;0.82;0.45;;;22.30;99.90;;;-144.05;50.60;125687.94;6121729;23;20015;-89
2022/07/11 12:07:29;;;;;;;1.17;0.65;;;22.30;99.90;;;-144.05;51.13;125687.94;6097345;23;20014;-89
2022/07/11 12:09:59;;;;;;;1.25;0.70;;;22.40;99.90;;;-144.05;50.94;125687.94;6121629;23;20010;-89
2022/07/11 12:12:52;;;;;;;0.93;0.50;;;22.30;99.90;;;-144.05;51.73;125687.94;6126380;23;20042;-89
2022/07/11 12:16:39;;;;;;;2.58;0.60;;;22.10;99.90;;;-144.05;52.65;125687.94;6128418;23;20349;-90
2022/07/11 12:18:22;;;;;;;0.82;0.50;;;21.90;99.90;;;-144.05;52.89;125687.94;6098310;23;20468;-89
2022/07/11 12:20:48;;;;;;;1.00;0.63;;;21.70;99.90;;;-144.05;52.36;125687.94;6120737;23;20015;-91
2022/07/11 12:23:19;;;;;;;0.73;0.60;;;21.80;99.90;;;-144.05;52.18;125687.94;6096960;23;20018;-91
2022/07/11 12:25:48;;;;;;;0.40;0.40;;;21.80;99.90;;;-144.05;52.04;125687.94;6109156;23;20154;-90
2022/07/11 12:28:14;;;;;;;0.47;0.40;;;22.00;99.90;;;-144.05;51.15;125687.94;6096605;23;20020;-90
2022/07/11 12:30:40;;;;;;;0.95;0.47;;;22.20;99.90;;;-144.05;50.05;125687.94;6098358;23;20002;-91
2022/07/11 12:33:14;;;;;;;1.23;0.50;;;22.20;99.90;;;-144.05;49.80;125687.94;6096590;23;20013;-91
2022/07/11 12:36:00;;;;;;;0.65;0.40;;;22.40;99.90;;;-144.05;49.75;125687.94;6097359;23;20487;-89
2022/07/11 12:38:53;;;;;;;;;;;22.60;99.90;;;-144.05;48.55;125687.94;6098471;23;20014;-89
2022/07/11 12:41:20;;;;;;;0.50;0.50;;;22.80;99.90;;;-144.05;48.97;125687.94;6097170;23;19905;-90
2022/07/11 12:46:39;;;;;;;0.80;0.70;;;22.80;99.90;;;-144.05;49.14;125687.94;6099567;23;20383;-90
2022/07/11 12:49:11;;;;;;;0.60;0.50;;;22.80;99.90;;;-144.05;49.13;125687.94;6122627;23;20006;-89
2022/07/11 12:51:45;;;;;;;1.10;0.63;;;22.80;99.90;;;-144.05;49.52;125687.94;6122170;23;20006;-90
2022/07/11 12:54:17;;;;;;;1.25;0.70;;;22.80;99.90;;;-144.05;49.24;125687.94;6097346;23;20287;-88
2022/07/11 12:56:57;;;;;;;0.65;0.50;;;22.90;99.90;;;-144.05;48.15;125687.94;6122126;23;20010;-90
2022/07/11 12:59:26;;;;;;;0.85;0.50;;;23.50;99.90;;;-144.05;45.47;125687.94;6098017;23;20429;-89
2022/07/11 13:02:06;;;;;;;1.23;0.40;;;24.20;99.90;;;-144.05;45.11;125687.94;6097197;23;20373;-90
2022/07/11 13:04:51;;;;;;;0.60;0.35;;;24.60;99.90;;;-144.05;45.18;125687.94;6097568;23;20348;-88
2022/07/11 13:11:30;;;;;;;0.85;0.80;;;24.30;99.90;;;-144.05;47.04;125687.94;6073999;23;20471;-91
2022/07/11 13:14:01;;;;;;;0.70;0.63;;;23.70;99.90;;;-144.05;48.12;125687.94;6078476;23;20011;-90
2022/07/11 13:16:28;;;;;;;2.00;0.60;;;23.40;99.90;;;-144.05;48.77;125687.94;6099786;23;20006;-89
2022/07/11 13:18:54;;;;;;;1.30;0.90;;;23.00;99.90;;;-144.05;49.62;125687.94;6122815;23;20448;-90
2022/07/11 13:21:20;;;;;;;0.90;0.70;;;22.80;99.90;;;-144.05;50.62;125687.94;6122211;23;20021;-88
2022/07/11 13:23:47;;;;;;;1.40;0.77;;;22.70;99.90;;;-144.05;50.03;125687.94;6122275;23;20085;-91
2022/07/11 13:26:15;;;;;;;1.40;0.80;;;22.70;99.90;;;-144.05;49.61;125687.94;6122843;23;20010;-88
2022/07/11 13:28:42;;;;;;;1.10;1.00;;;22.60;99.90;;;-144.05;49.74;125687.94;6122979;23;20003;-89
2022/07/11 13:31:08;;;;;;;1.65;1.20;;;22.40;99.90;;;-144.05;50.45;125687.94;6097487;23;20165;-91
2022/07/11 13:33:35;;;;;;;0.98;0.80;;;22.50;99.90;;;-144.05;50.23;125687.94;6099465;23;20318;-91
2022/07/11 13:36:01;;;;;;;2.58;0.93;;;22.40;99.90;;;-144.05;50.55;125687.94;6097919;23;20463;-87
2022/07/11 13:38:27;;;;;;;0.85;0.80;;;22.30;99.90;;;-144.05;51.19;125687.94;6122529;23;20010;-89
2022/07/11 13:40:53;;;;;;;0.88;0.80;;;22.20;99.90;;;-144.05;51.23;125687.94;6122894;23;20011;-90
2022/07/11 13:43:20;;;;;;;2.47;0.60;;;22.30;99.90;;;-144.05;51.13;125687.94;6099020;23;20487;-88
2022/07/11 13:45:47;;;;;;;0.80;0.80;;;22.30;99.90;;;-144.05;51.49;125687.94;6099003;23;20437;-87
2022/07/11 13:48:13;;;;;;;1.70;1.08;;;22.30;99.90;;;-144.05;51.38;125687.94;6100894;23;20002;-88
2022/07/11 13:50:40;;;;;;;2.50;0.70;;;22.20;99.90;;;-144.05;50.80;125687.94;6098166;23;20093;-91
2022/07/11 13:53:06;;;;;;;1.67;0.70;;;22.10;99.90;;;-144.05;51.62;125687.94;6122095;23;20062;-89
2022/07/11 13:55:32;;;;;;;0.75;0.70;;;22.00;99.90;;;-144.05;51.67;125687.94;6122458;23;20014;-91
2022/07/11 13:58:00;;;;;;;1.85;0.82;;;22.00;99.90;;;-144.05;51.32;125687.94;6122731;23;20014;-90
2022/07/11 14:00:29;;;;;;;0.93;0.88;;;22.10;99.90;;;-144.05;51.15;125687.94;6098826;23;20010;-91
2022/07/11 14:02:56;;;;;;;1.63;1.15;;;22.20;99.90;;;-144.05;51.01;125687.94;6099089;23;20018;-90
2022/07/11 14:05:22;;;;;;;3.95;0.85;;;22.30;99.90;;;-144.05;50.65;125687.94;6123406;23;20010;-89
2022/07/11 14:07:50;;;;;;;1.30;0.90;;;22.30;99.90;;;-144.05;51.16;125687.94;6100706;23;20089;-89
2022/07/11 14:10:17;;;;;;;0.93;0.80;;;22.30;99.90;;;-144.05;50.73;125687.94;6101930;23;20013;-89
2022/07/11 14:12:43;;;;;;;1.05;0.90;;;22.50;99.90;;;-144.05;49.65;125687.94;6125327;23;20006;-91
2022/07/11 14:15:10;;;;;;;1.00;1.00;;;22.70;99.90;;;-144.05;48.85;125687.94;6103052;23;20010;-89
2022/07/11 14:17:37;;;;;;;0.80;0.80;;;22.80;99.90;;;-144.05;48.94;125687.94;6130524;23;20010;-89
2022/07/11 14:20:07;;;;;;;1.27;1.17;;;22.80;99.90;;;-144.05;49.07;125687.94;6124882;23;20017;-90
2022/07/11 14:22:34;;;;;;;1.67;1.08;;;22.90;99.90;;;-144.05;49.34;125687.94;6123570;23;20010;-88
2022/07/11 14:25:00;;;;;;;1.27;1.00;;;23.00;99.90;;;-144.05;49.07;125687.94;6129623;23;20011;-89
2022/07/11 14:27:45;;;;;;;1.58;1.20;;;23.00;99.90;;;-144.05;48.89;125687.94;6108405;23;20010;-93
2022/07/11 14:30:13;;;;;;;0.90;0.90;;;22.90;99.90;;;-144.05;48.77;125687.94;6092874;23;20014;-90
2022/07/11 14:32:57;;;;;;;1.20;1.10;;;23.00;99.90;;;-144.05;48.88;125687.94;6121452;23;20066;-90
2022/07/11 14:35:24;;;;;;;1.80;1.50;;;23.00;99.90;;;-144.05;48.92;125687.94;6121265;23;20018;-91
2022/07/11 14:37:50;;;;;;;1.55;1.45;;;23.00;99.90;;;-144.05;48.94;125687.94;6096456;23;20194;-89
2022/07/11 14:40:24;;;;;;;2.33;1.40;;;22.80;99.90;;;-144.05;49.57;125687.94;6121086;23;20016;-89
2022/07/11 14:42:54;;;;;;;2.00;1.90;;;22.80;99.90;;;-144.05;49.63;125687.94;6121401;23;20010;-89
2022/07/11 14:45:20;;;;;;;2.50;2.30;;;23.00;99.90;;;-144.05;49.69;125687.94;6097254;23;20006;-90
2022/07/11 14:47:47;;;;;;;2.78;2.58;;;22.90;99.90;;;-144.05;49.57;125687.94;6096872;23;20006;-91
2022/07/11 14:50:14;;;;;;;2.78;2.58;;;22.90;99.90;;;-144.05;49.05;125687.94;6122308;23;20084;-90
2022/07/11 14:52:40;;;;;;;2.50;2.30;;;22.90;99.90;;;-144.05;49.49;125687.94;6121659;23;20041;-90
2022/07/11 14:55:07;;;;;;;4.70;2.35;;;22.90;99.90;;;-144.05;49.79;125687.94;6098127;23;20014;-90
2022/07/11 14:57:50;;;;;;;2.20;1.88;;;22.80;99.90;;;-144.05;49.65;125687.94;6122611;23;20006;-90
2022/07/11 15:00:21;;;;;;;2.03;1.90;;;22.60;99.90;;;-144.05;50.19;125687.94;6098707;23;20013;-89
2022/07/11 15:16:07;;;;;;;2.05;0.82;;;22.10;99.90;;;-144.05;51.05;125687.94;6078247;23;20006;-91
2022/07/11 15:18:36;;;;;;;1.25;1.00;;;22.60;99.90;;;-144.05;49.35;125687.94;6075690;23;20009;-89
2022/07/11 15:21:02;;;;;;;1.58;0.75;;;23.00;99.90;;;-144.05;49.02;125687.94;6098149;23;20054;-90
2022/07/11 15:23:56;;;;;;;1.35;0.70;;;23.20;99.90;;;-144.05;48.98;125687.94;6100125;23;20066;-92
2022/07/11 15:27:03;;;;;;;1.20;0.70;;;23.10;99.90;;;-144.05;49.73;125687.94;6122400;23;20007;-90
2022/07/11 15:30:17;;;;;;;;;;;;;;;;;;;;;
2022/07/11 15:33:48;;;;;;;1.27;1.05;;;23.10;99.90;;;-144.05;48.41;125687.94;6101106;23;20033;-91
2022/07/11 15:41:34;;;;;;;1.05;0.50;;;22.90;99.90;;;-144.05;49.25;125687.94;5986214;24;20020;-90
